createdAt,value
2022-09-02T06:07:53.704Z,52.14
2022-09-02T06:10:22.938Z,51.84
2022-09-02T06:12:51.022Z,51.71
2022-09-02T06:15:24.250Z,52.10
2022-09-02T06:17:51.409Z,52.29
2022-09-02T06:20:18.596Z,52.35
2022-09-02T06:22:48.810Z,52.24
2022-09-02T06:25:21.073Z,52.59
2022-09-02T06:27:49.211Z,51.57
2022-09-02T06:30:16.458Z,52.07
2022-09-02T06:32:43.986Z,52.31
2022-09-02T06:35:20.993Z,51.93
2022-09-02T06:37:48.495Z,52.08
2022-09-02T06:40:17.139Z,52.44
2022-09-02T06:42:45.371Z,51.67
2022-09-02T06:45:32.582Z,51.90
2022-09-02T06:48:03.156Z,51.86
2022-09-02T06:50:45.722Z,51.86
2022-09-02T06:53:13.567Z,52.16
2022-09-02T06:55:43.253Z,51.84
2022-09-02T06:58:13.643Z,51.79
2022-09-02T07:00:43.745Z,52.03
2022-09-02T07:03:33.255Z,51.75
2022-09-02T07:06:06.690Z,52.36
2022-09-02T07:08:34.644Z,51.79
2022-09-02T07:11:05.564Z,51.94
2022-09-02T07:13:33.673Z,52.04
2022-09-02T07:16:01.300Z,52.12
2022-09-02T07:18:29.335Z,52.12
2022-09-02T07:20:57.051Z,52.03
2022-09-02T07:23:24.658Z,51.69
2022-09-02T07:25:52.137Z,51.05
2022-09-02T07:28:20.428Z,51.55
2022-09-02T07:30:49.080Z,52.05
2022-09-02T07:33:19.605Z,51.53
2022-09-02T07:35:47.176Z,51.38
2022-09-02T07:38:18.237Z,51.36
2022-09-02T07:40:47.224Z,51.00
2022-09-02T07:43:15.581Z,51.16
2022-09-02T07:45:44.036Z,50.97
2022-09-02T07:48:15.376Z,50.62
2022-09-02T07:50:42.800Z,50.86
2022-09-02T07:53:14.235Z,50.85
2022-09-02T07:55:42.448Z,50.79
2022-09-02T07:58:10.408Z,50.65
2022-09-02T08:00:43.268Z,50.78
2022-09-02T08:03:11.612Z,50.56
2022-09-02T08:05:47.312Z,50.86
2022-09-02T08:08:15.609Z,50.26
2022-09-02T08:10:42.720Z,50.29
2022-09-02T08:13:10.256Z,50.39
2022-09-02T08:15:37.475Z,49.80
2022-09-02T08:18:05.319Z,50.11
2022-09-02T08:20:32.530Z,50.01
2022-09-02T08:23:10.670Z,50.27
2022-09-02T08:25:38.224Z,49.85
2022-09-02T08:28:05.339Z,50.20
2022-09-02T08:30:32.573Z,49.41
2022-09-02T08:32:59.725Z,49.14
2022-09-02T08:35:27.990Z,48.87
2022-09-02T08:37:55.212Z,49.31
2022-09-02T08:40:23.902Z,48.94
2022-09-02T08:42:54.569Z,48.53
2022-09-02T08:45:24.334Z,48.77
2022-09-02T08:48:13.867Z,48.38
2022-09-02T08:50:44.247Z,47.90
2022-09-02T08:53:34.866Z,47.51
2022-09-02T08:56:02.828Z,48.14
2022-09-02T08:58:38.312Z,48.07
2022-09-02T09:01:27.527Z,48.07
2022-09-02T09:04:22.149Z,47.92
2022-09-02T09:07:04.457Z,47.55
2022-09-02T09:09:49.760Z,47.31
2022-09-02T09:12:23.682Z,47.27
2022-09-02T09:15:12.025Z,47.26
2022-09-02T09:17:45.006Z,46.88
2022-09-02T09:20:24.870Z,47.30
2022-09-02T09:22:52.694Z,47.05
2022-09-02T09:25:19.932Z,47.10
2022-09-02T09:27:47.143Z,46.44
2022-09-02T14:21:01.394Z,37.83
2022-09-02T14:23:30.476Z,38.22
2022-09-02T14:25:58.973Z,38.16
2022-09-02T14:28:33.358Z,38.03
2022-09-02T14:31:06.077Z,37.32
2022-09-02T15:09:40.775Z,38.80
2022-09-02T17:43:19.900Z,41.84
2022-09-02T17:45:48.429Z,41.60
2022-09-02T17:48:36.996Z,41.78
